Latest Weather Observations for Hopetoun North

IDW60801

Issued at 5:35 pm WST Friday 22 August 2014 (issued every 30 minutes, with the page automatically refreshed every 10 minutes)

About weather observations | Map of weather stations | Latest weather observations for WA | Other Formats
Station Details ID: 009961 Name: HOPETOUN NORTH Lat: -33.93 Lon: 120.13 Height: 26.0 m
Data from the previous 72 hours. | See also: Recent months at Hopetoun North
Date/Time
WST
Temp
°C
App
Temp
°C
Dew
Point
Rel
Hum
%
Delta-T
°C
Wind Press
QNH
hPa
Press
MSL
hPa
Rain
since 9 am
mm
Dir
 
Spd
km/h
Gust
km/h
Spd
kts
Gust
kts
22/05:30pm 11.1 8.3 5.0 66 2.8 S 9 13 5 7 1022.9 1022.9 0.0
22/05:00pm 12.5 8.6 5.4 62 3.3 S 15 20 8 11 1022.4 1022.4 0.0
22/04:30pm 13.0 8.8 5.7 61 3.4 SSW 17 22 9 12 1022.1 1022.1 0.0
22/04:00pm 13.6 8.9 5.3 57 3.9 SSW 19 28 10 15 1021.6 1021.6 0.0
22/03:30pm 13.8 9.0 5.4 57 3.9 SSW 20 32 11 17 1021.3 1021.3 0.0
22/03:00pm 13.8 8.9 5.2 56 4.0 SSW 20 26 11 14 1021.1 1021.1 0.0
22/02:30pm 13.7 8.5 5.6 58 3.8 SSW 22 30 12 16 1021.0 1021.0 0.0
22/02:00pm 13.9 9.0 5.0 55 4.1 SSW 20 30 11 16 1020.9 1020.9 0.0
22/01:30pm 14.0 8.9 4.3 52 4.5 SW 20 30 11 16 1020.8 1020.8 0.0
22/01:00pm 13.8 8.4 4.4 53 4.3 SW 22 30 12 16 1020.6 1020.6 0.0
22/12:30pm 14.6 9.1 5.7 55 4.2 SW 24 33 13 18 1020.7 1020.7 0.0
22/12:00pm 13.8 7.3 4.7 54 4.2 SW 28 37 15 20 1020.6 1020.6 0.0
22/11:30am 13.9 7.3 4.2 52 4.4 SW 28 39 15 21 1020.6 1020.6 0.0
22/11:00am 13.6 6.0 3.1 49 4.7 WSW 32 43 17 23 1020.7 1020.7 0.0
22/10:30am 13.7 8.3 4.3 53 4.3 W 22 35 12 19 1020.6 1020.6 0.0
22/10:00am 12.9 6.7 4.1 55 4.0 W 26 39 14 21 1020.1 1020.1 0.0
22/09:30am 12.6 7.1 6.0 64 3.1 W 24 46 13 25 1019.9 1019.9 0.0
22/09:00am 11.9 6.7 7.2 73 2.3 W 24 35 13 19 1019.7 1019.7 2.4
22/08:30am 11.4 6.3 7.7 78 1.8 W 24 35 13 19 1019.3 1019.3 2.4
22/08:00am 10.5 5.5 8.1 85 1.2 W 24 37 13 20 1018.8 1018.8 2.4
22/07:30am 9.4 6.2 8.6 95 0.4 WNW 15 22 8 12 1018.1 1018.1 2.4
22/07:00am 9.3 6.2 8.8 97 0.2 WNW 15 30 8 16 1017.5 1017.5 2.4
22/06:30am 8.8 5.7 8.8 100 0.0 W 15 26 8 14 1016.9 1016.9 2.4
22/06:00am 9.0 6.3 9.0 100 0.0 WNW 13 19 7 10 1016.3 1016.2 2.4
22/05:30am 9.4 6.4 9.4 100 0.0 WNW 15 22 8 12 1015.8 1015.7 2.4
22/05:00am 9.8 7.7 9.8 100 0.0 WNW 11 22 6 12 1015.1 1015.1 2.4
22/04:30am 10.1 7.7 10.1 100 0.0 WNW 13 20 7 11 1014.5 1014.5 2.4
22/04:00am 10.1 7.7 10.1 100 0.0 WNW 13 22 7 12 1014.1 1014.1 2.4
22/03:30am 10.5 7.5 10.5 100 0.0 WNW 17 24 9 13 1013.9 1013.9 2.4
22/03:00am 10.2 8.2 10.2 100 0.0 WNW 11 17 6 9 1013.8 1013.8 2.4
22/02:30am 9.5 8.1 9.5 100 0.0 NNW 7 11 4 6 1013.5 1013.5 2.4
22/02:00am 9.9 8.2 9.9 100 0.0 N 9 11 5 6 1013.4 1013.4 2.4
22/01:30am 10.2 8.2 10.2 100 0.0 N 11 13 6 7 1013.0 1013.0 2.4
22/01:00am 10.5 9.0 10.5 100 0.0 N 9 15 5 8 1013.0 1013.0 2.4
22/12:30am 10.3 8.7 10.3 100 0.0 N 9 13 5 7 1012.9 1012.9 2.4
22/12:00am 10.4 8.1 10.4 100 0.0 N 13 17 7 9 1012.8 1012.8 2.2
 
Date/Time
WST
Temp
°C
App
Temp
°C
Dew
Point
Rel
Hum
%
Delta-T
°C
Wind Press
QNH
hPa
Press
MSL
hPa
Rain
since 9 am
mm
Dir
 
Spd
km/h
Gust
km/h
Spd
kts
Gust
kts
21/11:30pm 10.6 8.7 10.6 100 0.0 N 11 15 6 8 1012.9 1012.9 2.2
21/11:00pm 10.7 9.6 10.7 100 0.0 NNW 7 11 4 6 1013.0 1013.0 2.2
21/10:30pm 11.2 9.1 11.2 100 0.0 N 13 19 7 10 1012.8 1012.8 2.0
21/10:00pm 11.0 10.0 11.0 100 0.0 N 7 17 4 9 1012.7 1012.7 2.0
21/09:30pm 10.3 9.1 10.3 100 0.0 NNE 7 9 4 5 1012.8 1012.8 2.0
21/09:00pm 10.6 9.5 10.6 100 0.0 NNE 7 9 4 5 1012.7 1012.7 2.0
21/08:30pm 11.9 12.5 11.9 100 0.0 CALM 0 2 0 1 1012.9 1012.9 2.0
21/08:00pm 12.2 10.0 12.2 100 0.0 SSW 15 26 8 14 1012.9 1012.9 2.0
21/07:30pm 12.4 8.2 12.4 100 0.0 SSW 26 33 14 18 1012.5 1012.5 2.0
21/07:00pm 13.5 8.9 13.5 100 0.0 SSW 30 43 16 23 1012.0 1012.0 1.4
21/06:49pm 14.1 9.9 13.6 97 0.3 SW 28 41 15 22 1011.6 1011.6 1.4
21/06:30pm 16.3 13.9 8.8 61 3.8 NW 11 19 6 10 1010.7 1010.7 1.4
21/06:00pm 15.5 13.5 8.7 64 3.5 NNW 9 13 5 7 1010.3 1010.3 1.4
21/05:30pm 16.1 13.6 8.3 60 4.0 WNW 11 15 6 8 1010.0 1010.0 1.4
21/05:00pm 17.7 14.7 9.1 57 4.5 WNW 15 24 8 13 1009.5 1009.5 1.4
21/04:30pm 17.8 14.0 8.9 56 4.6 WNW 19 28 10 15 1009.1 1009.1 1.4
21/04:00pm 18.8 15.2 9.8 56 4.8 WNW 19 28 10 15 1008.8 1008.8 1.4
21/03:30pm 19.5 16.4 11.5 60 4.4 WNW 19 30 10 16 1008.5 1008.5 1.4
21/03:00pm 17.8 13.9 10.9 64 3.7 NW 22 41 12 22 1008.3 1008.3 1.4
21/02:30pm 18.0 15.9 13.5 75 2.6 NW 17 30 9 16 1008.4 1008.4 1.4
21/02:00pm 17.0 14.2 13.1 78 2.2 NW 20 32 11 17 1008.4 1008.4 1.4
21/01:30pm 16.9 13.8 13.4 80 2.0 NW 22 35 12 19 1008.3 1008.3 1.4
21/01:00pm 16.6 12.9 13.9 84 1.5 NW 26 39 14 21 1008.4 1008.4 1.4
21/12:30pm 15.5 11.3 13.5 88 1.1 NNW 28 46 15 25 1008.6 1008.6 1.4
21/12:29pm 15.4 11.2 13.4 88 1.1 NNW 28 46 15 25 1008.6 1008.6 1.4
21/12:00pm 14.3 10.8 13.5 95 0.4 NNW 24 39 13 21 1008.8 1008.8 1.4
21/11:30am 13.0 10.1 13.0 100 0.0 NNW 20 33 11 18 1008.6 1008.6 1.4
21/11:00am 12.3 8.5 12.3 100 0.0 N 24 37 13 20 1008.2 1008.2 1.2
21/10:30am 12.9 7.7 10.4 85 1.3 N 28 41 15 22 1008.7 1008.7 0.0
21/10:00am 14.7 9.0 8.2 65 3.3 NNW 28 44 15 24 1009.5 1009.5 0.0
21/09:30am 14.6 9.6 8.1 65 3.3 N 24 39 13 21 1009.6 1009.6 0.0
21/09:00am 14.4 9.6 8.8 69 2.8 N 24 35 13 19 1009.1 1009.1 0.2
21/08:30am 13.9 9.8 10.1 78 2.0 N 22 32 12 17 1009.1 1009.1 0.2
21/08:00am 11.1 9.0 9.9 92 0.6 N 11 15 6 8 1009.4 1009.4 0.2
21/07:30am 10.5 8.0 9.6 94 0.5 NNE 13 19 7 10 1009.4 1009.4 0.2
21/07:00am 8.7 6.9 8.1 96 0.3 NNE 7 9 4 5 1009.7 1009.7 0.2
21/06:30am 8.9 6.0 8.1 95 0.4 NNE 13 17 7 9 1009.7 1009.7 0.2
21/06:00am 8.9 5.9 7.7 92 0.6 NE 13 17 7 9 1009.6 1009.6 0.2
21/05:30am 10.9 7.3 8.3 84 1.3 N 17 28 9 15 1009.9 1009.9 0.2
21/05:00am 10.6 7.7 8.2 85 1.2 N 13 20 7 11 1010.5 1010.5 0.2
21/04:30am 10.1 7.2 8.0 87 1.0 N 13 19 7 10 1010.4 1010.4 0.2
21/04:00am 9.6 6.7 8.0 90 0.8 N 13 17 7 9 1010.7 1010.7 0.2
21/03:30am 8.2 6.6 7.9 98 0.1 N 6 9 3 5 1010.8 1010.8 0.2
21/03:00am 8.2 6.2 7.3 94 0.4 NE 7 7 4 4 1010.9 1010.9 0.2
21/02:30am 9.7 7.4 7.6 87 1.0 N 9 11 5 6 1011.3 1011.3 0.2
21/02:00am 10.5 8.2 7.6 82 1.4 N 9 11 5 6 1011.7 1011.7 0.2
21/01:30am 11.5 8.9 7.8 78 1.8 N 11 15 6 8 1011.9 1011.9 0.2
21/01:00am 11.8 9.3 8.1 78 1.8 N 11 17 6 9 1012.2 1012.2 0.2
21/12:30am 11.4 9.2 7.9 79 1.7 N 9 13 5 7 1012.3 1012.3 0.2
21/12:00am 11.9 10.1 8.0 77 1.9 N 7 11 4 6 1012.7 1012.7 0.2
 
Date/Time
WST
Temp
°C
App
Temp
°C
Dew
Point
Rel
Hum
%
Delta-T
°C
Wind Press
QNH
hPa
Press
MSL
hPa
Rain
since 9 am
mm
Dir
 
Spd
km/h
Gust
km/h
Spd
kts
Gust
kts
20/11:30pm 12.3 10.5 7.8 74 2.2 NNW 7 9 4 5 1012.9 1012.9 0.2
20/11:00pm 12.3 9.8 8.0 75 2.1 N 11 15 6 8 1013.1 1013.1 0.2
20/10:30pm 12.4 9.9 8.1 75 2.1 N 11 13 6 7 1013.3 1013.3 0.2
20/10:00pm 12.2 9.3 8.3 77 1.9 N 13 19 7 10 1013.6 1013.6 0.2
20/09:30pm 11.8 9.4 8.5 80 1.6 N 11 17 6 9 1013.7 1013.7 0.2
20/09:00pm 11.0 8.4 7.9 81 1.5 N 11 17 6 9 1014.0 1014.0 0.2
20/08:30pm 10.2 7.7 6.7 79 1.6 N 9 13 5 7 1013.9 1013.9 0.2
20/08:00pm 11.8 8.6 6.7 71 2.4 N 13 17 7 9 1013.9 1013.9 0.2
20/07:30pm 12.2 8.9 6.5 68 2.7 N 13 19 7 10 1013.9 1013.9 0.2
20/07:00pm 12.9 10.0 6.5 65 3.1 N 11 13 6 7 1013.6 1013.6 0.2
20/06:30pm 13.3 11.3 7.1 66 3.0 N 7 11 4 6 1013.6 1013.6 0.2
20/06:00pm 14.4 12.2 7.9 65 3.2 N 9 15 5 8 1013.6 1013.6 0.2
20/05:30pm 15.0 12.8 8.0 63 3.5 NW 9 15 5 8 1013.5 1013.5 0.2
20/05:00pm 15.5 13.3 7.8 60 3.9 NNW 9 13 5 7 1013.4 1013.4 0.2
20/04:30pm 15.8 13.5 7.6 58 4.1 NNW 9 17 5 9 1013.3 1013.3 0.2
20/04:00pm 16.3 13.1 7.0 54 4.6 NW 13 22 7 12 1013.1 1013.1 0.2
20/03:30pm 16.7 14.8 9.1 61 3.9 NNW 9 19 5 10 1012.8 1012.8 0.2
20/03:00pm 16.6 13.8 8.6 59 4.1 NNW 13 19 7 10 1012.9 1012.9 0.2
20/02:30pm 16.5 13.2 8.2 58 4.2 NW 15 24 8 13 1013.2 1013.2 0.2
20/02:00pm 17.3 16.7 12.2 72 2.8 S 7 13 4 7 1012.9 1012.9 0.2
20/01:30pm 15.0 13.6 12.1 83 1.6 ESE 11 15 6 8 1013.0 1013.0 0.2
20/01:00pm 16.2 15.6 12.2 77 2.2 SSE 7 11 4 6 1013.1 1013.1 0.2
20/12:30pm 15.6 14.5 11.8 78 2.1 SSE 9 13 5 7 1013.4 1013.4 0.2
20/12:00pm 15.4 14.2 11.6 78 2.0 SSE 9 17 5 9 1013.9 1013.9 0.2
20/11:30am 15.9 14.7 11.7 76 2.3 SSE 9 15 5 8 1014.3 1014.3 0.2
20/11:00am 17.0 16.2 11.1 68 3.2 W 6 13 3 7 1014.6 1014.6 0.0
20/10:30am 16.8 15.0 12.1 74 2.6 NW 13 20 7 11 1015.1 1015.1 0.0
20/10:00am 15.1 13.8 12.4 84 1.5 N 11 17 6 9 1015.2 1015.2 0.0
20/09:30am 14.1 13.5 13.6 97 0.3 N 9 13 5 7 1015.6 1015.5 0.0
20/09:00am 12.2 10.8 12.2 100 0.0 N 11 15 6 8 1015.7 1015.6 3.8
20/08:30am 11.1 9.4 11.1 100 0.0 N 11 19 6 10 1015.9 - 3.8
20/08:00am 9.2 7.3 9.2 100 0.0 N 9 15 5 8 1015.8 1015.7 3.8
20/07:30am 8.1 5.6 8.1 100 0.0 N 11 15 6 8 1015.5 - 3.8
20/07:00am 6.9 4.9 6.9 100 0.0 N 7 11 4 6 1015.2 1015.2 3.8
20/06:30am 6.4 3.9 6.4 100 0.0 N 9 13 5 7 1015.1 - 3.8
20/06:00am 6.9 3.7 6.9 100 0.0 N 13 20 7 11 1014.8 1014.8 3.8
20/05:30am 6.8 4.4 6.8 100 0.0 NNW 9 15 5 8 1014.9 - 3.8
20/05:00am 7.0 4.6 7.0 100 0.0 N 9 15 5 8 1015.0 1015.0 3.8
20/04:30am 7.1 4.7 7.1 100 0.0 N 9 11 5 6 1014.8 - 3.8
20/04:00am 7.3 4.6 7.3 100 0.0 N 11 15 6 8 1014.9 1014.9 3.8
20/03:30am 6.9 4.1 6.9 100 0.0 N 11 15 6 8 1015.0 - 3.8
20/03:00am 6.0 3.9 6.0 100 0.0 NNE 6 7 3 4 1015.2 1015.2 3.6
20/02:30am 6.4 4.2 6.4 100 0.0 N 7 13 4 7 1015.5 - 3.6
20/02:00am 5.1 1.9 5.1 100 0.0 NE 11 13 6 7 1015.7 1015.6 3.6
20/01:30am 5.0 1.8 5.0 100 0.0 NE 11 13 6 7 1015.8 - 3.6
20/01:00am 5.5 2.8 5.5 100 0.0 NE 9 11 5 6 1016.0 1015.9 3.6
20/12:30am 5.9 3.6 5.9 100 0.0 NNE 7 9 4 5 1016.1 - 3.6
20/12:00am 6.3 4.1 6.3 100 0.0 NE 7 11 4 6 1016.0 1015.9 3.6
 
Date/Time
WST
Temp
°C
App
Temp
°C
Dew
Point
Rel
Hum
%
Delta-T
°C
Wind Press
QNH
hPa
Press
MSL
hPa
Rain
since 9 am
mm
Dir
 
Spd
km/h
Gust
km/h
Spd
kts
Gust
kts
19/11:30pm 6.4 3.9 6.4 100 0.0 NNE 9 9 5 5 1016.0 - 3.6
19/11:00pm 6.4 3.5 6.4 100 0.0 NE 11 13 6 7 1015.9 1015.8 3.6
19/10:30pm 6.7 4.2 6.7 100 0.0 NE 9 11 5 6 1016.2 - 3.6
19/10:00pm 7.0 4.2 7.0 100 0.0 NE 11 13 6 7 1016.3 1016.2 3.6
19/09:30pm 7.3 5.0 7.3 100 0.0 NE 9 13 5 7 1016.3 - 3.6
19/09:00pm 8.2 5.3 8.2 100 0.0 ENE 13 13 7 7 1016.4 1016.3 3.6
19/08:30pm 9.0 7.1 9.0 100 0.0 NE 9 11 5 6 1016.5 - 3.6
19/08:00pm 10.4 8.9 10.4 100 0.0 ENE 9 13 5 7 1016.5 1016.4 3.6
19/07:30pm 10.6 9.1 10.6 100 0.0 ENE 9 11 5 6 1016.3 - 3.6
19/07:00pm 11.2 9.5 11.2 100 0.0 ENE 11 17 6 9 1016.1 1016.0 3.6
19/06:30pm 11.7 10.1 11.7 100 0.0 E 11 15 6 8 1015.8 - 3.6
19/06:00pm 12.2 10.8 12.2 100 0.0 ESE 11 15 6 8 1015.3 1015.3 3.6

Other Formats:

Comma delimited format used in spreadsheet applications
http://www.bom.gov.au/fwo/IDW60801/IDW60801.95635.axf

JavaScript Object Notation format (JSON) in row-major order
http://www.bom.gov.au/fwo/IDW60801/IDW60801.95635.json